createdAt,value
2023-03-07T00:01:58.553Z,10.93
2023-03-07T00:04:25.357Z,10.73
2023-03-07T00:06:52.085Z,10.58
2023-03-07T00:09:18.896Z,10.66
2023-03-07T00:11:45.626Z,10.69
2023-03-07T00:14:12.382Z,10.71
2023-03-07T00:16:39.152Z,10.74
2023-03-07T00:19:09.230Z,10.80
2023-03-07T00:21:36.006Z,10.68
2023-03-07T00:24:03.040Z,10.56
2023-03-07T00:26:29.876Z,10.52
2023-03-07T00:28:56.833Z,10.54
2023-03-07T00:31:24.452Z,10.30
2023-03-07T00:33:51.210Z,10.27
2023-03-07T00:36:21.045Z,10.26
2023-03-07T00:38:48.439Z,10.05
2023-03-07T00:41:28.946Z,9.88
2023-03-07T00:43:55.968Z,9.85
2023-03-07T00:46:24.342Z,9.77
2023-03-07T00:48:51.242Z,9.76
2023-03-07T00:51:19.737Z,9.79
2023-03-07T00:53:46.909Z,9.69
2023-03-07T00:56:25.168Z,9.64
2023-03-07T00:58:52.559Z,9.73
2023-03-07T01:01:22.486Z,9.64
2023-03-07T01:03:53.511Z,9.66
2023-03-07T01:06:31.608Z,9.27
2023-03-07T01:09:04.870Z,9.31
2023-03-07T01:11:33.487Z,9.31
2023-03-07T01:14:04.456Z,9.03
2023-03-07T01:16:36.487Z,9.05
2023-03-07T01:19:07.016Z,9.05
2023-03-07T01:21:39.525Z,9.06
2023-03-07T01:24:08.575Z,8.90
2023-03-07T01:26:35.403Z,9.01
2023-03-07T01:29:04.570Z,9.04
2023-03-07T01:31:34.727Z,9.07
2023-03-07T01:34:02.560Z,9.12
2023-03-07T01:36:34.559Z,9.08
2023-03-07T01:39:10.330Z,8.90
2023-03-07T01:41:40.987Z,8.92
2023-03-07T01:44:19.398Z,8.84
2023-03-07T01:46:56.266Z,8.80
2023-03-07T01:49:46.170Z,8.80
2023-03-07T01:52:14.919Z,8.83
2023-03-07T01:54:51.419Z,8.89
2023-03-07T01:57:23.729Z,8.84
2023-03-07T01:59:56.304Z,8.80
2023-03-07T02:02:24.622Z,8.88
2023-03-07T02:04:54.730Z,8.81
2023-03-07T02:07:25.052Z,8.92
2023-03-07T02:09:53.782Z,9.02
2023-03-07T02:12:22.998Z,9.10
2023-03-07T02:14:51.111Z,9.06
2023-03-07T02:17:19.020Z,9.14
2023-03-07T02:19:57.812Z,9.00
2023-03-07T02:22:26.017Z,9.13
2023-03-07T02:25:01.424Z,9.02
2023-03-07T02:27:34.491Z,9.00
2023-03-07T02:30:01.917Z,8.75
2023-03-07T02:32:34.963Z,8.54
2023-03-07T02:35:01.849Z,8.41
2023-03-07T02:37:33.217Z,8.38
2023-03-07T02:40:05.337Z,8.45
2023-03-07T02:42:35.430Z,8.44
2023-03-07T02:45:11.001Z,8.62
2023-03-07T02:47:42.488Z,8.56
2023-03-07T02:50:11.303Z,8.69
2023-03-07T02:52:41.418Z,8.66
2023-03-07T02:55:09.283Z,8.38
2023-03-07T02:57:39.612Z,8.22
2023-03-07T03:00:08.242Z,8.21
2023-03-07T03:02:35.445Z,8.23
2023-03-07T03:05:02.431Z,8.02
2023-03-07T03:07:29.173Z,7.94
2023-03-07T03:09:55.941Z,8.00
2023-03-07T03:12:23.072Z,7.86
2023-03-07T03:14:50.238Z,7.73
2023-03-07T03:17:17.272Z,7.87
2023-03-07T03:19:44.132Z,7.89
2023-03-07T03:22:11.224Z,7.87
2023-03-07T03:24:42.833Z,7.99
2023-03-07T03:27:13.136Z,7.98
2023-03-07T03:29:41.244Z,7.94
2023-03-07T03:32:08.698Z,8.02
2023-03-07T03:34:35.633Z,7.87
2023-03-07T03:37:02.460Z,7.94
2023-03-07T03:39:30.156Z,8.09
2023-03-07T03:41:59.304Z,8.00
2023-03-07T03:44:26.873Z,8.03
2023-03-07T03:46:53.970Z,8.19
2023-03-07T03:49:22.330Z,8.14
2023-03-07T03:51:51.116Z,8.17
2023-03-07T03:54:18.491Z,8.28
2023-03-07T03:56:45.315Z,7.97
2023-03-07T03:59:13.177Z,8.06
2023-03-07T04:01:39.967Z,7.91
2023-03-07T04:04:07.482Z,7.85
2023-03-07T04:06:35.542Z,7.94
2023-03-07T04:09:04.915Z,8.02
2023-03-07T04:11:32.649Z,8.07
2023-03-07T04:13:59.543Z,8.11
2023-03-07T04:16:26.587Z,7.84
2023-03-07T04:18:53.952Z,7.99
2023-03-07T04:21:21.628Z,7.95
2023-03-07T04:23:50.578Z,8.03
2023-03-07T04:26:17.813Z,8.09
2023-03-07T04:28:49.469Z,8.07
2023-03-07T04:31:25.824Z,7.71
2023-03-07T04:33:54.278Z,7.91
2023-03-07T04:36:22.086Z,7.92
2023-03-07T04:38:50.089Z,7.91
2023-03-07T04:41:23.607Z,7.90
2023-03-07T04:43:54.850Z,7.81
2023-03-07T04:46:23.520Z,7.74
2023-03-07T04:48:50.466Z,7.73
2023-03-07T04:51:18.218Z,7.62
2023-03-07T04:53:45.171Z,7.63
2023-03-07T04:56:14.070Z,7.47
2023-03-07T04:58:41.912Z,7.32
2023-03-07T05:01:08.939Z,7.01
2023-03-07T05:03:36.001Z,7.07
2023-03-07T05:06:09.057Z,7.01
2023-03-07T05:08:36.279Z,6.90
2023-03-07T05:11:03.064Z,6.71
2023-03-07T05:13:31.285Z,6.75
2023-03-07T05:15:59.735Z,6.60
2023-03-07T05:18:27.932Z,6.70
2023-03-07T05:20:56.515Z,6.67
2023-03-07T05:23:23.879Z,6.80
2023-03-07T05:25:51.931Z,6.87
2023-03-07T05:28:19.161Z,7.02
2023-03-07T05:30:46.968Z,7.02
2023-03-07T05:33:14.961Z,7.18
2023-03-07T05:35:42.315Z,7.27
2023-03-07T05:38:11.418Z,7.25
2023-03-07T05:40:38.293Z,7.06
2023-03-07T05:43:06.164Z,7.03
2023-03-07T05:45:33.651Z,6.94
2023-03-07T05:48:01.300Z,6.89
2023-03-07T05:50:28.855Z,6.78
2023-03-07T05:52:55.661Z,6.75
2023-03-07T05:55:25.460Z,6.76
2023-03-07T05:57:52.694Z,6.65
2023-03-07T06:00:20.090Z,6.75
2023-03-07T06:02:53.788Z,6.68
2023-03-07T06:05:20.594Z,6.52
2023-03-07T06:07:47.468Z,6.52
2023-03-07T06:10:15.342Z,6.60
2023-03-07T06:12:42.130Z,6.64
2023-03-07T06:15:10.478Z,6.64
2023-03-07T06:17:38.253Z,6.65
2023-03-07T06:20:06.766Z,6.70
2023-03-07T06:22:37.857Z,6.73
2023-03-07T06:25:06.686Z,6.67
2023-03-07T06:27:35.076Z,6.65
2023-03-07T06:30:02.372Z,6.52
2023-03-07T06:32:32.048Z,6.58
2023-03-07T06:34:59.209Z,6.67
2023-03-07T06:37:27.350Z,6.77
2023-03-07T06:39:56.910Z,6.82
2023-03-07T06:42:23.765Z,6.90
2023-03-07T06:44:50.769Z,6.80
2023-03-07T06:47:19.074Z,6.74
2023-03-07T06:49:46.939Z,6.79
2023-03-07T06:52:14.469Z,6.85
2023-03-07T06:54:41.142Z,7.14
2023-03-07T06:57:09.059Z,7.39
2023-03-07T06:59:36.424Z,7.65
2023-03-07T07:02:03.929Z,7.88
2023-03-07T07:04:31.054Z,7.98
2023-03-07T07:06:59.446Z,8.03
2023-03-07T07:09:27.347Z,8.03
2023-03-07T07:11:54.242Z,7.96
2023-03-07T07:14:22.108Z,7.94
2023-03-07T07:16:49.261Z,8.11
2023-03-07T07:19:16.276Z,8.15
2023-03-07T07:21:43.274Z,8.15
2023-03-07T07:24:12.762Z,8.15
2023-03-07T07:26:39.836Z,8.21
2023-03-07T07:29:15.978Z,8.29
2023-03-07T07:31:43.197Z,8.37
2023-03-07T07:34:10.443Z,8.54
2023-03-07T07:36:37.233Z,8.65
2023-03-07T07:39:08.303Z,8.59
2023-03-07T07:41:37.518Z,8.67
2023-03-07T07:44:04.847Z,8.82
2023-03-07T07:46:38.015Z,8.94
2023-03-07T07:49:06.928Z,8.98
2023-03-07T07:51:33.950Z,9.21
2023-03-07T07:54:01.125Z,9.60
2023-03-07T07:56:27.913Z,9.69
2023-03-07T07:58:54.719Z,9.94
2023-03-07T08:01:24.603Z,10.18
2023-03-07T08:03:51.764Z,10.56
2023-03-07T08:06:20.558Z,10.48
2023-03-07T08:08:48.214Z,10.38
2023-03-07T08:11:16.575Z,10.44
2023-03-07T08:13:43.413Z,10.62
2023-03-07T08:16:11.927Z,10.70
2023-03-07T08:18:38.891Z,10.94
2023-03-07T08:21:05.840Z,10.90
2023-03-07T08:23:32.617Z,11.16
2023-03-07T08:26:05.843Z,11.09
2023-03-07T08:28:33.716Z,11.37
2023-03-07T08:31:14.865Z,11.48
2023-03-07T08:33:42.132Z,11.59
2023-03-07T08:36:09.793Z,11.69
2023-03-07T08:38:36.545Z,11.75
2023-03-07T08:41:06.433Z,11.96
2023-03-07T08:43:36.301Z,12.13
2023-03-07T08:46:03.712Z,12.31
2023-03-07T08:48:30.849Z,12.40
2023-03-07T08:50:57.843Z,12.46
2023-03-07T08:53:24.670Z,12.40
2023-03-07T08:55:51.402Z,12.52
2023-03-07T08:58:18.168Z,12.58
2023-03-07T09:00:44.917Z,12.69
2023-03-07T09:03:11.688Z,12.95
2023-03-07T09:05:39.199Z,13.14
2023-03-07T09:08:07.681Z,13.36
2023-03-07T09:10:35.571Z,13.52
2023-03-07T09:13:02.391Z,13.61
2023-03-07T09:15:29.234Z,13.80
2023-03-07T09:17:56.086Z,13.91
2023-03-07T09:20:24.784Z,14.09
2023-03-07T09:22:53.638Z,14.30
2023-03-07T09:25:20.563Z,14.47
2023-03-07T09:27:47.405Z,14.43
2023-03-07T09:30:15.448Z,14.66
2023-03-07T09:32:42.904Z,14.78
2023-03-07T09:35:10.417Z,14.90
2023-03-07T09:37:38.132Z,15.01
2023-03-07T09:40:07.437Z,15.10
2023-03-07T09:42:46.231Z,15.18
2023-03-07T09:45:21.926Z,15.25
2023-03-07T09:48:21.214Z,15.24
2023-03-07T10:03:43.725Z,16.88
2023-03-07T10:06:28.893Z,16.77
2023-03-07T10:08:56.453Z,16.49
2023-03-07T10:11:44.689Z,16.37
2023-03-07T10:14:35.876Z,16.23
2023-03-07T10:17:11.819Z,16.15
2023-03-07T10:20:08.325Z,16.00
2023-03-07T10:22:43.796Z,16.02
2023-03-07T10:25:10.550Z,16.00
2023-03-07T10:27:39.044Z,16.00
2023-03-07T10:30:20.882Z,16.00
2023-03-07T10:32:55.601Z,16.10
2023-03-07T10:35:24.934Z,16.16
2023-03-07T10:37:56.296Z,16.36
2023-03-07T10:40:32.039Z,16.50
2023-03-07T10:42:59.916Z,16.63
2023-03-07T10:45:32.268Z,16.72
2023-03-07T10:48:09.998Z,16.83
2023-03-07T10:50:45.202Z,16.88
2023-03-07T10:53:25.273Z,16.87
2023-03-07T10:55:52.497Z,16.96
2023-03-07T10:58:23.480Z,17.12
2023-03-07T11:01:02.552Z,17.27
2023-03-07T11:03:54.230Z,17.28
2023-03-07T11:06:31.475Z,17.45
2023-03-07T11:09:15.084Z,17.52
2023-03-07T11:12:07.346Z,17.62
2023-03-07T11:14:54.433Z,17.66
2023-03-07T11:17:43.163Z,17.78
2023-03-07T11:20:19.020Z,17.74
2023-03-07T11:22:46.420Z,17.68
2023-03-07T11:25:13.118Z,17.83
2023-03-07T11:27:52.634Z,17.86
2023-03-07T11:30:19.579Z,17.89
2023-03-07T11:33:10.815Z,17.85
2023-03-07T11:35:46.577Z,17.85
2023-03-07T11:38:36.614Z,17.88
2023-03-07T11:41:41.294Z,17.86
2023-03-07T11:44:45.849Z,17.97
2023-03-07T11:47:30.956Z,18.03
2023-03-07T11:50:26.975Z,18.14
2023-03-07T11:53:05.524Z,18.10
2023-03-07T11:55:44.402Z,18.18
2023-03-07T11:58:41.960Z,18.03
2023-03-07T12:01:36.598Z,17.95
2023-03-07T12:04:21.851Z,17.82
2023-03-07T12:07:21.395Z,17.79
2023-03-07T12:09:59.277Z,17.78
2023-03-07T12:12:34.843Z,17.81
2023-03-07T12:15:23.182Z,17.83
2023-03-07T12:18:12.867Z,17.67
2023-03-07T12:21:01.188Z,17.57
2023-03-07T12:23:39.621Z,17.60
2023-03-07T12:26:34.057Z,17.61
2023-03-07T12:29:19.473Z,17.67
2023-03-07T12:31:51.528Z,17.74
2023-03-07T12:34:30.428Z,17.76
2023-03-07T12:37:26.189Z,17.77
2023-03-07T12:39:59.647Z,17.80
2023-03-07T12:42:32.273Z,17.81
2023-03-07T12:45:06.229Z,17.94
2023-03-07T12:48:21.173Z,18.14
2023-03-07T12:50:56.749Z,18.27
2023-03-07T12:53:37.865Z,18.47
2023-03-07T12:56:12.848Z,18.58
2023-03-07T12:59:00.791Z,18.67
2023-03-07T13:01:41.313Z,18.75
2023-03-07T13:04:31.016Z,18.87
2023-03-07T13:07:15.578Z,18.98
2023-03-07T13:09:48.143Z,19.02
2023-03-07T13:12:21.747Z,19.09
2023-03-07T13:14:52.727Z,19.21
2023-03-07T13:17:34.386Z,19.29
2023-03-07T13:20:17.494Z,19.34
2023-03-07T13:22:44.212Z,19.39
2023-03-07T13:25:20.122Z,19.36
2023-03-07T13:27:48.045Z,19.33
2023-03-07T13:30:21.729Z,19.32
2023-03-07T13:32:48.780Z,19.33
2023-03-07T13:35:30.621Z,19.15
2023-03-07T13:38:03.778Z,19.25
2023-03-07T13:40:57.685Z,19.30
2023-03-07T13:43:27.202Z,19.35
2023-03-07T13:46:00.366Z,19.40
2023-03-07T13:48:27.504Z,19.48
2023-03-07T13:50:54.256Z,19.51
2023-03-07T13:53:42.759Z,19.46
2023-03-07T13:56:15.453Z,19.46
2023-03-07T13:59:04.060Z,19.51
2023-03-07T14:01:40.849Z,19.56
2023-03-07T14:04:38.469Z,19.63
2023-03-07T14:07:31.797Z,19.60
2023-03-07T14:10:21.437Z,19.64
2023-03-07T14:13:34.895Z,19.77
2023-03-07T14:16:13.694Z,19.83
2023-03-07T14:19:11.238Z,19.82
2023-03-07T14:22:00.959Z,19.86
2023-03-07T14:24:33.610Z,19.98
2023-03-07T14:27:05.056Z,20.06
2023-03-07T14:29:32.035Z,20.15
2023-03-07T14:32:01.064Z,20.14
2023-03-07T14:34:29.691Z,20.14
2023-03-07T14:36:57.853Z,20.16
2023-03-07T14:39:28.962Z,20.20
2023-03-07T14:42:10.030Z,20.19
2023-03-07T14:44:36.816Z,20.13
2023-03-07T14:47:25.629Z,20.14
2023-03-07T14:50:14.200Z,20.15
2023-03-07T14:52:42.015Z,20.18
2023-03-07T14:55:21.182Z,20.28
2023-03-07T14:57:53.074Z,20.24
2023-03-07T15:00:25.761Z,20.29
2023-03-07T15:03:07.981Z,20.37
2023-03-07T15:05:51.319Z,20.40
2023-03-07T15:08:30.023Z,20.46
2023-03-07T15:11:13.603Z,20.49
2023-03-07T15:13:47.765Z,20.48
2023-03-07T15:16:26.773Z,20.51
2023-03-07T15:19:01.932Z,20.45
2023-03-07T15:21:40.401Z,20.52
2023-03-07T15:24:19.636Z,20.53
2023-03-07T15:26:52.002Z,20.56
2023-03-07T15:29:22.151Z,20.52
2023-03-07T15:31:54.849Z,20.63
2023-03-07T15:34:26.699Z,20.51
2023-03-07T15:36:54.112Z,20.49
2023-03-07T15:39:34.597Z,20.35
2023-03-07T15:42:06.935Z,20.27
2023-03-07T15:44:36.395Z,20.18
2023-03-07T15:47:13.869Z,20.21
2023-03-07T15:49:47.532Z,20.22
2023-03-07T15:52:36.975Z,20.37
2023-03-07T15:55:17.757Z,20.28
2023-03-07T15:57:57.528Z,20.36
2023-03-07T16:00:34.821Z,20.40
2023-03-07T16:03:23.585Z,20.41
2023-03-07T16:05:51.338Z,20.44
2023-03-07T16:08:20.075Z,20.51
2023-03-07T16:10:52.492Z,20.39
2023-03-07T16:13:22.342Z,20.30
2023-03-07T16:16:04.040Z,20.39
2023-03-07T16:18:32.590Z,20.43
2023-03-07T16:20:59.957Z,20.41
2023-03-07T16:23:30.940Z,20.30
2023-03-07T16:25:59.905Z,20.32
2023-03-07T16:28:26.685Z,20.31
2023-03-07T16:30:53.551Z,20.33
2023-03-07T16:33:20.389Z,20.32
2023-03-07T16:35:47.734Z,20.35
2023-03-07T16:38:14.547Z,20.39
2023-03-07T16:40:43.983Z,20.40
2023-03-07T16:43:33.576Z,20.20
2023-03-07T16:46:02.080Z,20.19
2023-03-07T16:48:28.854Z,20.24
2023-03-07T16:50:55.700Z,20.29
2023-03-07T16:53:22.497Z,20.30
2023-03-07T16:55:49.480Z,20.19
2023-03-07T16:58:23.939Z,20.02
2023-03-07T17:00:51.307Z,20.08
2023-03-07T17:03:18.379Z,20.11
2023-03-07T17:05:45.157Z,20.04
2023-03-07T17:08:11.937Z,19.92
2023-03-07T17:10:39.935Z,19.86
2023-03-07T17:13:09.879Z,19.78
2023-03-07T17:15:36.794Z,19.57
2023-03-07T17:18:03.897Z,19.53
2023-03-07T17:20:31.139Z,19.51
2023-03-07T17:22:58.354Z,19.43
2023-03-07T17:25:26.077Z,19.42
2023-03-07T17:28:03.272Z,19.31
2023-03-07T17:30:31.558Z,19.25
2023-03-07T17:32:58.642Z,19.15
2023-03-07T17:35:25.857Z,19.07
2023-03-07T17:37:53.292Z,19.01
2023-03-07T17:40:21.747Z,19.02
2023-03-07T17:42:53.634Z,18.98
2023-03-07T17:45:20.831Z,18.95
2023-03-07T17:47:54.862Z,18.89
2023-03-07T17:50:25.563Z,18.86
2023-03-07T17:52:54.481Z,18.84
2023-03-07T17:55:24.939Z,18.77
2023-03-07T17:57:52.293Z,18.78
2023-03-07T18:00:20.952Z,18.77
2023-03-07T18:02:48.362Z,18.76
2023-03-07T18:05:15.353Z,18.65
2023-03-07T18:07:42.184Z,18.69
2023-03-07T18:10:10.316Z,18.68
2023-03-07T18:12:39.235Z,18.63
2023-03-07T18:15:14.033Z,18.63
2023-03-07T18:17:47.786Z,18.61
2023-03-07T18:20:20.033Z,18.56
2023-03-07T18:22:46.944Z,18.56
2023-03-07T18:25:15.570Z,18.56
2023-03-07T18:27:42.489Z,18.53
2023-03-07T18:30:10.240Z,18.48
2023-03-07T18:32:37.017Z,18.48
2023-03-07T18:35:04.579Z,18.45
2023-03-07T18:37:31.418Z,18.47
2023-03-07T18:39:58.186Z,18.45
2023-03-07T18:42:25.194Z,18.38
2023-03-07T18:44:52.052Z,18.36
2023-03-07T18:47:19.007Z,18.34
2023-03-07T18:49:48.465Z,18.35
2023-03-07T18:52:15.205Z,18.30
2023-03-07T18:54:42.470Z,18.32
2023-03-07T18:57:09.256Z,18.29
2023-03-07T18:59:35.968Z,18.28
2023-03-07T19:02:03.273Z,18.25
2023-03-07T19:04:31.437Z,18.23
2023-03-07T19:06:59.663Z,18.23
2023-03-07T19:09:27.800Z,18.23
2023-03-07T19:11:54.726Z,18.24
2023-03-07T19:14:21.549Z,18.23
2023-03-07T19:16:48.390Z,18.23
2023-03-07T19:19:15.183Z,18.21
2023-03-07T19:21:42.028Z,18.12
2023-03-07T19:24:11.399Z,18.16
2023-03-07T19:26:38.267Z,18.11
2023-03-07T19:29:05.110Z,18.10
2023-03-07T19:31:33.077Z,18.11
2023-03-07T19:34:03.391Z,18.03
2023-03-07T19:36:32.115Z,17.94
2023-03-07T19:39:02.231Z,17.95
2023-03-07T19:41:31.555Z,18.02
2023-03-07T19:44:01.624Z,18.04
2023-03-07T19:46:28.849Z,18.00
2023-03-07T19:48:55.769Z,17.96
2023-03-07T19:51:24.705Z,17.94
2023-03-07T19:53:54.782Z,17.98
2023-03-07T19:56:28.254Z,17.99
2023-03-07T19:58:55.857Z,17.98
2023-03-07T20:01:23.575Z,17.98
2023-03-07T20:03:51.144Z,17.99
2023-03-07T20:06:20.819Z,17.97
2023-03-07T20:08:48.804Z,17.96
2023-03-07T20:11:18.154Z,17.96
2023-03-07T20:13:46.397Z,17.87
2023-03-07T20:16:14.838Z,17.84
2023-03-07T20:18:42.186Z,17.77
2023-03-07T20:21:11.696Z,17.75
2023-03-07T20:23:38.707Z,17.62
2023-03-07T20:26:13.687Z,17.52
2023-03-07T20:28:40.636Z,17.46
2023-03-07T20:31:11.237Z,17.29
2023-03-07T20:33:40.708Z,17.17
2023-03-07T20:36:13.089Z,17.11
2023-03-07T20:38:39.973Z,16.98
2023-03-07T20:41:11.629Z,16.90
2023-03-07T20:43:38.430Z,16.83
2023-03-07T20:46:08.183Z,16.72
2023-03-07T20:48:36.004Z,16.63
2023-03-07T20:51:05.874Z,16.57
2023-03-07T20:53:33.430Z,16.39
2023-03-07T20:56:04.698Z,16.36
2023-03-07T20:58:32.679Z,16.38
2023-03-07T21:00:59.698Z,16.20
2023-03-07T21:03:27.386Z,16.01
2023-03-07T21:05:59.318Z,15.99
2023-03-07T21:08:28.632Z,15.90
2023-03-07T21:11:10.829Z,15.94
2023-03-07T21:13:38.641Z,15.88
2023-03-07T21:16:28.326Z,15.75
2023-03-07T21:19:02.389Z,15.71
2023-03-07T21:21:30.905Z,15.72
2023-03-07T21:23:58.564Z,15.74
2023-03-07T21:26:28.127Z,15.79
2023-03-07T21:28:56.828Z,15.61
2023-03-07T21:31:26.164Z,15.57
2023-03-07T21:33:58.176Z,15.53
2023-03-07T21:36:27.145Z,15.47
2023-03-07T21:38:54.664Z,15.51
2023-03-07T21:41:22.327Z,15.57
2023-03-07T21:43:49.323Z,15.62
2023-03-07T21:46:16.272Z,15.56
2023-03-07T21:48:43.658Z,15.58
2023-03-07T21:51:10.982Z,15.35
2023-03-07T21:53:37.902Z,15.47
2023-03-07T21:56:10.403Z,15.52
2023-03-07T21:58:38.121Z,15.45
2023-03-07T22:01:12.752Z,15.38
2023-03-07T22:03:40.975Z,15.24
2023-03-07T22:06:09.924Z,15.35
2023-03-07T22:08:37.257Z,15.26
2023-03-07T22:11:06.526Z,15.21
2023-03-07T22:13:35.221Z,15.14
2023-03-07T22:16:05.404Z,15.08
2023-03-07T22:18:33.168Z,15.07
2023-03-07T22:21:14.769Z,14.94
2023-03-07T22:23:42.384Z,14.97
2023-03-07T22:26:10.960Z,14.97
2023-03-07T22:28:38.449Z,15.02
2023-03-07T22:31:08.952Z,14.90
2023-03-07T22:33:36.025Z,15.00
2023-03-07T22:36:05.927Z,15.03
2023-03-07T22:38:33.657Z,15.03
2023-03-07T22:41:02.315Z,15.11
2023-03-07T22:43:31.420Z,15.06
2023-03-07T22:45:58.360Z,15.02
2023-03-07T22:48:25.526Z,15.03
2023-03-07T22:50:52.726Z,15.10
2023-03-07T22:53:20.352Z,15.01
2023-03-07T22:55:47.411Z,15.10
2023-03-07T22:58:14.481Z,15.12
2023-03-07T23:00:43.691Z,15.04
2023-03-07T23:03:10.796Z,15.06
2023-03-07T23:05:37.622Z,14.95
2023-03-07T23:08:04.680Z,15.01
2023-03-07T23:10:31.843Z,15.07
2023-03-07T23:12:59.170Z,15.09
2023-03-07T23:15:26.331Z,15.01
2023-03-07T23:17:53.397Z,14.96
2023-03-07T23:20:20.296Z,14.91
2023-03-07T23:22:47.114Z,14.97
2023-03-07T23:25:15.077Z,14.94
2023-03-07T23:27:43.081Z,14.93
2023-03-07T23:30:10.558Z,14.96
2023-03-07T23:32:37.411Z,15.01
2023-03-07T23:35:04.466Z,15.03
2023-03-07T23:37:31.359Z,15.04
2023-03-07T23:39:58.567Z,14.91
2023-03-07T23:42:25.389Z,14.79
2023-03-07T23:44:52.193Z,14.86
2023-03-07T23:47:19.005Z,14.85
2023-03-07T23:49:48.042Z,14.89
2023-03-07T23:52:14.790Z,14.89
2023-03-07T23:54:44.843Z,14.89
2023-03-07T23:57:11.973Z,14.70
2023-03-07T23:59:38.681Z,14.51
